sensor_id;sensor_type;location;lat;lon;timestamp;temperature;humidity
1181;DHT22;579;52.046;8.532;2023-04-29T00:01:43;14.60;1.00
1181;DHT22;579;52.046;8.532;2023-04-29T00:04:09;14.70;1.00
1181;DHT22;579;52.046;8.532;2023-04-29T00:06:36;14.60;1.00
1181;DHT22;579;52.046;8.532;2023-04-29T00:09:02;14.40;1.00
1181;DHT22;579;52.046;8.532;2023-04-29T00:11:29;14.10;1.00
1181;DHT22;579;52.046;8.532;2023-04-29T00:13:55;14.30;1.00
1181;DHT22;579;52.046;8.532;2023-04-29T00:16:21;14.30;1.00
1181;DHT22;579;52.046;8.532;2023-04-29T00:23:48;13.10;1.00
1181;DHT22;579;52.046;8.532;2023-04-29T00:26:15;14.80;1.00
1181;DHT22;579;52.046;8.532;2023-04-29T00:28:41;15.10;1.00
1181;DHT22;579;52.046;8.532;2023-04-29T00:31:08;15.20;1.00
1181;DHT22;579;52.046;8.532;2023-04-29T00:33:34;14.70;1.00
1181;DHT22;579;52.046;8.532;2023-04-29T00:36:00;14.70;1.00
1181;DHT22;579;52.046;8.532;2023-04-29T00:38:26;14.40;1.00
1181;DHT22;579;52.046;8.532;2023-04-29T00:47:36;14.70;1.00
1181;DHT22;579;52.046;8.532;2023-04-29T00:50:04;14.60;1.00
1181;DHT22;579;52.046;8.532;2023-04-29T00:52:32;14.40;1.00
1181;DHT22;579;52.046;8.532;2023-04-29T00:54:59;14.00;1.00
1181;DHT22;579;52.046;8.532;2023-04-29T00:57:26;14.00;1.00
1181;DHT22;579;52.046;8.532;2023-04-29T00:59:53;14.00;1.00
1181;DHT22;579;52.046;8.532;2023-04-29T01:02:20;14.00;1.00
1181;DHT22;579;52.046;8.532;2023-04-29T01:10:00;13.80;1.00
1181;DHT22;579;52.046;8.532;2023-04-29T01:12:33;13.80;1.00
1181;DHT22;579;52.046;8.532;2023-04-29T01:15:11;13.80;1.00
1181;DHT22;579;52.046;8.532;2023-04-29T01:17:47;13.70;1.00
1181;DHT22;579;52.046;8.532;2023-04-29T01:20:16;13.80;1.00
1181;DHT22;579;52.046;8.532;2023-04-29T01:22:42;13.80;1.00
1181;DHT22;579;52.046;8.532;2023-04-29T01:25:10;13.50;1.00
1181;DHT22;579;52.046;8.532;2023-04-29T01:32:53;13.40;1.00
1181;DHT22;579;52.046;8.532;2023-04-29T01:35:41;13.40;1.00
1181;DHT22;579;52.046;8.532;2023-04-29T01:38:22;13.50;1.00
1181;DHT22;579;52.046;8.532;2023-04-29T01:40:59;13.50;1.00
1181;DHT22;579;52.046;8.532;2023-04-29T01:43:32;13.50;1.00
1181;DHT22;579;52.046;8.532;2023-04-29T01:45:59;13.50;1.00
1181;DHT22;579;52.046;8.532;2023-04-29T01:48:29;13.80;1.00
1181;DHT22;579;52.046;8.532;2023-04-29T01:55:54;13.50;1.00
1181;DHT22;579;52.046;8.532;2023-04-29T01:58:21;13.20;1.00
1181;DHT22;579;52.046;8.532;2023-04-29T02:00:47;13.10;1.00
1181;DHT22;579;52.046;8.532;2023-04-29T02:03:13;13.10;1.00
1181;DHT22;579;52.046;8.532;2023-04-29T02:05:40;13.00;1.00
1181;DHT22;579;52.046;8.532;2023-04-29T02:08:06;13.20;1.00
1181;DHT22;579;52.046;8.532;2023-04-29T02:10:32;13.10;1.00
1181;DHT22;579;52.046;8.532;2023-04-29T02:19:57;13.30;1.00
1181;DHT22;579;52.046;8.532;2023-04-29T02:22:24;13.40;1.00
1181;DHT22;579;52.046;8.532;2023-04-29T02:24:50;13.50;1.00
1181;DHT22;579;52.046;8.532;2023-04-29T02:27:16;13.10;1.00
1181;DHT22;579;52.046;8.532;2023-04-29T02:29:43;12.90;1.00
1181;DHT22;579;52.046;8.532;2023-04-29T02:32:09;13.20;1.00
1181;DHT22;579;52.046;8.532;2023-04-29T02:34:35;13.10;1.00
1181;DHT22;579;52.046;8.532;2023-04-29T02:42:05;13.40;1.00
1181;DHT22;579;52.046;8.532;2023-04-29T02:44:32;13.50;1.00
1181;DHT22;579;52.046;8.532;2023-04-29T02:46:58;13.20;1.00
1181;DHT22;579;52.046;8.532;2023-04-29T02:49:24;12.90;1.00
1181;DHT22;579;52.046;8.532;2023-04-29T02:51:51;13.00;1.00
1181;DHT22;579;52.046;8.532;2023-04-29T02:54:17;13.50;1.00
1181;DHT22;579;52.046;8.532;2023-04-29T02:56:44;13.50;1.00
1181;DHT22;579;52.046;8.532;2023-04-29T03:04:07;13.50;1.00
1181;DHT22;579;52.046;8.532;2023-04-29T03:06:33;13.00;1.00
1181;DHT22;579;52.046;8.532;2023-04-29T03:08:59;13.10;1.00
1181;DHT22;579;52.046;8.532;2023-04-29T03:11:26;13.10;1.00
1181;DHT22;579;52.046;8.532;2023-04-29T03:13:52;13.20;1.00
1181;DHT22;579;52.046;8.532;2023-04-29T03:16:19;13.90;1.00
1181;DHT22;579;52.046;8.532;2023-04-29T03:18:45;13.30;1.00
1181;DHT22;579;52.046;8.532;2023-04-29T03:26:04;13.10;1.00
1181;DHT22;579;52.046;8.532;2023-04-29T03:28:30;13.50;1.00
1181;DHT22;579;52.046;8.532;2023-04-29T03:30:56;13.70;1.00
1181;DHT22;579;52.046;8.532;2023-04-29T03:33:23;16.30;1.00
1181;DHT22;579;52.046;8.532;2023-04-29T03:35:50;13.80;1.00
1181;DHT22;579;52.046;8.532;2023-04-29T03:38:16;13.70;1.00
1181;DHT22;579;52.046;8.532;2023-04-29T03:40:42;13.60;1.00
1181;DHT22;579;52.046;8.532;2023-04-29T03:43:10;13.80;1.00
1181;DHT22;579;52.046;8.532;2023-04-29T03:50:07;14.00;1.00
1181;DHT22;579;52.046;8.532;2023-04-29T03:52:34;13.90;1.00
1181;DHT22;579;52.046;8.532;2023-04-29T03:55:01;14.10;1.00
1181;DHT22;579;52.046;8.532;2023-04-29T03:57:27;14.10;1.00
1181;DHT22;579;52.046;8.532;2023-04-29T03:59:54;14.00;1.00
1181;DHT22;579;52.046;8.532;2023-04-29T04:02:20;13.80;1.00
1181;DHT22;579;52.046;8.532;2023-04-29T04:04:46;13.70;1.00
1181;DHT22;579;52.046;8.532;2023-04-29T04:12:07;13.90;1.00
1181;DHT22;579;52.046;8.532;2023-04-29T04:14:33;14.00;1.00
1181;DHT22;579;52.046;8.532;2023-04-29T04:16:59;13.70;1.00
1181;DHT22;579;52.046;8.532;2023-04-29T04:19:25;13.40;1.00
1181;DHT22;579;52.046;8.532;2023-04-29T04:21:53;13.20;1.00
1181;DHT22;579;52.046;8.532;2023-04-29T04:24:20;13.40;1.00
1181;DHT22;579;52.046;8.532;2023-04-29T04:26:46;13.60;1.00
1181;DHT22;579;52.046;8.532;2023-04-29T04:33:35;13.60;1.00
1181;DHT22;579;52.046;8.532;2023-04-29T04:36:02;13.60;1.00
1181;DHT22;579;52.046;8.532;2023-04-29T04:38:28;13.60;1.00
1181;DHT22;579;52.046;8.532;2023-04-29T04:40:54;13.70;1.00
1181;DHT22;579;52.046;8.532;2023-04-29T04:43:20;13.70;1.00
1181;DHT22;579;52.046;8.532;2023-04-29T04:45:47;13.50;1.00
1181;DHT22;579;52.046;8.532;2023-04-29T04:48:13;13.40;1.00
1181;DHT22;579;52.046;8.532;2023-04-29T04:54:27;13.70;1.00
1181;DHT22;579;52.046;8.532;2023-04-29T04:56:54;13.70;1.00
1181;DHT22;579;52.046;8.532;2023-04-29T04:59:20;13.50;1.00
1181;DHT22;579;52.046;8.532;2023-04-29T05:01:46;13.40;1.00
1181;DHT22;579;52.046;8.532;2023-04-29T05:04:13;13.60;1.00
1181;DHT22;579;52.046;8.532;2023-04-29T05:06:40;13.80;1.00
1181;DHT22;579;52.046;8.532;2023-04-29T05:09:06;13.70;1.00
1181;DHT22;579;52.046;8.532;2023-04-29T05:16:07;13.50;1.00
1181;DHT22;579;52.046;8.532;2023-04-29T05:18:34;13.50;1.00
1181;DHT22;579;52.046;8.532;2023-04-29T05:21:00;13.50;1.00
1181;DHT22;579;52.046;8.532;2023-04-29T05:23:26;13.50;1.00
1181;DHT22;579;52.046;8.532;2023-04-29T05:25:53;13.50;1.00
1181;DHT22;579;52.046;8.532;2023-04-29T05:28:19;13.50;1.00
1181;DHT22;579;52.046;8.532;2023-04-29T05:30:46;13.60;1.00
1181;DHT22;579;52.046;8.532;2023-04-29T05:37:35;13.90;1.00
1181;DHT22;579;52.046;8.532;2023-04-29T05:40:02;13.80;1.00
1181;DHT22;579;52.046;8.532;2023-04-29T05:42:28;13.90;1.00
1181;DHT22;579;52.046;8.532;2023-04-29T05:44:55;13.50;1.00
1181;DHT22;579;52.046;8.532;2023-04-29T05:47:21;13.60;1.00
1181;DHT22;579;52.046;8.532;2023-04-29T05:49:47;13.10;1.00
1181;DHT22;579;52.046;8.532;2023-04-29T05:52:14;13.30;1.00
1181;DHT22;579;52.046;8.532;2023-04-29T05:59:46;12.90;1.00
1181;DHT22;579;52.046;8.532;2023-04-29T06:02:12;12.90;1.00
1181;DHT22;579;52.046;8.532;2023-04-29T06:04:39;13.00;1.00
1181;DHT22;579;52.046;8.532;2023-04-29T06:07:05;13.20;1.00
1181;DHT22;579;52.046;8.532;2023-04-29T06:09:33;12.90;1.00
1181;DHT22;579;52.046;8.532;2023-04-29T06:12:00;13.10;1.00
1181;DHT22;579;52.046;8.532;2023-04-29T06:14:27;13.50;1.00
1181;DHT22;579;52.046;8.532;2023-04-29T06:21:35;13.60;1.00
1181;DHT22;579;52.046;8.532;2023-04-29T06:24:01;13.80;1.00
1181;DHT22;579;52.046;8.532;2023-04-29T06:26:27;13.90;1.00
1181;DHT22;579;52.046;8.532;2023-04-29T06:28:54;13.90;1.00
1181;DHT22;579;52.046;8.532;2023-04-29T06:31:20;14.10;1.00
1181;DHT22;579;52.046;8.532;2023-04-29T06:33:46;14.00;1.00
1181;DHT22;579;52.046;8.532;2023-04-29T06:36:12;13.90;1.00
1181;DHT22;579;52.046;8.532;2023-04-29T06:43:44;14.50;1.00
1181;DHT22;579;52.046;8.532;2023-04-29T06:46:10;13.80;1.00
1181;DHT22;579;52.046;8.532;2023-04-29T06:48:37;14.10;1.00
1181;DHT22;579;52.046;8.532;2023-04-29T06:51:03;14.10;1.00
1181;DHT22;579;52.046;8.532;2023-04-29T06:53:30;14.20;1.00
1181;DHT22;579;52.046;8.532;2023-04-29T06:55:56;14.10;1.00
1181;DHT22;579;52.046;8.532;2023-04-29T06:58:23;13.90;1.00
1181;DHT22;579;52.046;8.532;2023-04-29T07:05:09;13.80;1.00
1181;DHT22;579;52.046;8.532;2023-04-29T07:07:35;14.10;1.00
1181;DHT22;579;52.046;8.532;2023-04-29T07:10:02;13.90;1.00
1181;DHT22;579;52.046;8.532;2023-04-29T07:12:29;13.90;1.00
1181;DHT22;579;52.046;8.532;2023-04-29T07:14:56;14.00;1.00
1181;DHT22;579;52.046;8.532;2023-04-29T07:17:23;14.20;1.00
1181;DHT22;579;52.046;8.532;2023-04-29T07:19:49;14.00;1.00
1181;DHT22;579;52.046;8.532;2023-04-29T07:26:34;14.40;1.00
1181;DHT22;579;52.046;8.532;2023-04-29T07:29:00;14.50;1.00
1181;DHT22;579;52.046;8.532;2023-04-29T07:31:27;14.40;1.00
1181;DHT22;579;52.046;8.532;2023-04-29T07:33:54;14.80;1.00
1181;DHT22;579;52.046;8.532;2023-04-29T07:36:21;14.70;1.00
1181;DHT22;579;52.046;8.532;2023-04-29T07:38:52;14.70;1.00
1181;DHT22;579;52.046;8.532;2023-04-29T07:41:21;14.40;1.00
1181;DHT22;579;52.046;8.532;2023-04-29T07:47:08;14.60;1.00
1181;DHT22;579;52.046;8.532;2023-04-29T07:49:34;14.70;1.00
1181;DHT22;579;52.046;8.532;2023-04-29T07:52:01;14.70;1.00
1181;DHT22;579;52.046;8.532;2023-04-29T07:54:28;15.00;1.00
1181;DHT22;579;52.046;8.532;2023-04-29T07:56:56;15.30;1.00
1181;DHT22;579;52.046;8.532;2023-04-29T07:59:23;15.20;1.00
1181;DHT22;579;52.046;8.532;2023-04-29T08:01:49;15.30;1.00
1181;DHT22;579;52.046;8.532;2023-04-29T08:09:04;15.30;1.00
1181;DHT22;579;52.046;8.532;2023-04-29T08:11:30;15.20;1.00
1181;DHT22;579;52.046;8.532;2023-04-29T08:13:57;15.40;1.00
1181;DHT22;579;52.046;8.532;2023-04-29T08:16:25;15.50;1.00
1181;DHT22;579;52.046;8.532;2023-04-29T08:18:52;15.50;1.00
1181;DHT22;579;52.046;8.532;2023-04-29T08:21:19;15.40;1.00
1181;DHT22;579;52.046;8.532;2023-04-29T08:23:45;15.40;1.00
1181;DHT22;579;52.046;8.532;2023-04-29T08:31:18;15.50;1.00
1181;DHT22;579;52.046;8.532;2023-04-29T08:33:45;15.40;1.00
1181;DHT22;579;52.046;8.532;2023-04-29T08:36:11;15.50;1.00
1181;DHT22;579;52.046;8.532;2023-04-29T08:38:38;15.60;1.00
1181;DHT22;579;52.046;8.532;2023-04-29T08:41:07;15.60;1.00
1181;DHT22;579;52.046;8.532;2023-04-29T08:43:34;15.50;1.00
1181;DHT22;579;52.046;8.532;2023-04-29T08:46:02;15.80;1.00
1181;DHT22;579;52.046;8.532;2023-04-29T08:53:32;16.00;1.00
1181;DHT22;579;52.046;8.532;2023-04-29T08:56:02;16.00;1.00
1181;DHT22;579;52.046;8.532;2023-04-29T08:58:31;15.90;1.00
1181;DHT22;579;52.046;8.532;2023-04-29T09:00:59;16.10;1.00
1181;DHT22;579;52.046;8.532;2023-04-29T09:03:29;16.20;1.00
1181;DHT22;579;52.046;8.532;2023-04-29T09:05:59;16.50;1.00
1181;DHT22;579;52.046;8.532;2023-04-29T09:08:26;16.60;1.00
1181;DHT22;579;52.046;8.532;2023-04-29T09:15:58;16.70;1.00
1181;DHT22;579;52.046;8.532;2023-04-29T09:18:44;16.70;1.00
1181;DHT22;579;52.046;8.532;2023-04-29T09:21:13;16.50;1.00
1181;DHT22;579;52.046;8.532;2023-04-29T09:23:40;16.70;1.00
1181;DHT22;579;52.046;8.532;2023-04-29T09:26:07;17.00;1.00
1181;DHT22;579;52.046;8.532;2023-04-29T09:28:34;17.40;1.00
1181;DHT22;579;52.046;8.532;2023-04-29T09:31:01;17.30;1.00
1181;DHT22;579;52.046;8.532;2023-04-29T09:37:22;17.40;1.00
1181;DHT22;579;52.046;8.532;2023-04-29T09:39:49;17.40;1.00
1181;DHT22;579;52.046;8.532;2023-04-29T09:42:16;17.50;1.00
1181;DHT22;579;52.046;8.532;2023-04-29T09:44:42;18.00;1.00
1181;DHT22;579;52.046;8.532;2023-04-29T09:47:10;18.20;1.00
1181;DHT22;579;52.046;8.532;2023-04-29T09:49:39;18.30;1.00
1181;DHT22;579;52.046;8.532;2023-04-29T09:52:07;18.30;1.00
1181;DHT22;579;52.046;8.532;2023-04-29T09:59:39;18.40;1.00
1181;DHT22;579;52.046;8.532;2023-04-29T10:02:11;18.50;1.00
1181;DHT22;579;52.046;8.532;2023-04-29T10:04:40;18.40;1.00
1181;DHT22;579;52.046;8.532;2023-04-29T10:07:07;18.70;1.00
1181;DHT22;579;52.046;8.532;2023-04-29T10:09:36;18.70;1.00
1181;DHT22;579;52.046;8.532;2023-04-29T10:12:06;18.60;1.00
1181;DHT22;579;52.046;8.532;2023-04-29T10:14:41;18.50;1.00
1181;DHT22;579;52.046;8.532;2023-04-29T10:21:28;18.00;1.00
1181;DHT22;579;52.046;8.532;2023-04-29T10:23:57;18.10;1.00
1181;DHT22;579;52.046;8.532;2023-04-29T10:26:26;18.40;1.00
1181;DHT22;579;52.046;8.532;2023-04-29T10:28:54;18.20;1.00
1181;DHT22;579;52.046;8.532;2023-04-29T10:31:21;18.60;1.00
1181;DHT22;579;52.046;8.532;2023-04-29T10:33:50;18.60;1.00
1181;DHT22;579;52.046;8.532;2023-04-29T10:36:20;18.20;1.00
1181;DHT22;579;52.046;8.532;2023-04-29T10:43:03;18.00;1.00
1181;DHT22;579;52.046;8.532;2023-04-29T10:45:30;18.10;1.00
1181;DHT22;579;52.046;8.532;2023-04-29T10:48:14;18.10;1.00
1181;DHT22;579;52.046;8.532;2023-04-29T10:51:00;17.90;1.00
1181;DHT22;579;52.046;8.532;2023-04-29T10:53:30;18.10;1.00
1181;DHT22;579;52.046;8.532;2023-04-29T10:56:02;18.10;1.00
1181;DHT22;579;52.046;8.532;2023-04-29T10:58:42;18.20;1.00
1181;DHT22;579;52.046;8.532;2023-04-29T11:06:07;18.00;1.00
1181;DHT22;579;52.046;8.532;2023-04-29T11:08:36;18.10;1.00
1181;DHT22;579;52.046;8.532;2023-04-29T11:11:04;18.20;1.00
1181;DHT22;579;52.046;8.532;2023-04-29T11:13:31;18.30;1.00
1181;DHT22;579;52.046;8.532;2023-04-29T11:16:03;18.50;1.00
1181;DHT22;579;52.046;8.532;2023-04-29T11:18:30;18.60;1.00
1181;DHT22;579;52.046;8.532;2023-04-29T11:26:13;18.50;1.00
1181;DHT22;579;52.046;8.532;2023-04-29T11:28:41;18.90;1.00
1181;DHT22;579;52.046;8.532;2023-04-29T11:31:08;18.50;1.00
1181;DHT22;579;52.046;8.532;2023-04-29T11:33:34;18.20;1.00
1181;DHT22;579;52.046;8.532;2023-04-29T11:36:00;18.10;1.00
1181;DHT22;579;52.046;8.532;2023-04-29T11:38:29;18.00;1.00
1181;DHT22;579;52.046;8.532;2023-04-29T11:40:56;18.00;1.00
1181;DHT22;579;52.046;8.532;2023-04-29T11:47:32;18.20;1.00
1181;DHT22;579;52.046;8.532;2023-04-29T11:50:02;18.50;1.00
1181;DHT22;579;52.046;8.532;2023-04-29T11:52:30;18.70;1.00
1181;DHT22;579;52.046;8.532;2023-04-29T11:54:57;18.80;1.00
1181;DHT22;579;52.046;8.532;2023-04-29T11:57:23;18.90;1.00
1181;DHT22;579;52.046;8.532;2023-04-29T11:59:50;18.90;1.00
1181;DHT22;579;52.046;8.532;2023-04-29T12:02:20;19.10;1.00
1181;DHT22;579;52.046;8.532;2023-04-29T12:08:14;20.00;1.00
1181;DHT22;579;52.046;8.532;2023-04-29T12:10:40;20.20;1.00
1181;DHT22;579;52.046;8.532;2023-04-29T12:13:07;20.10;1.00
1181;DHT22;579;52.046;8.532;2023-04-29T12:15:33;20.10;1.00
1181;DHT22;579;52.046;8.532;2023-04-29T12:18:00;20.00;1.00
1181;DHT22;579;52.046;8.532;2023-04-29T12:20:26;19.80;1.00
1181;DHT22;579;52.046;8.532;2023-04-29T12:22:53;19.80;1.00
1181;DHT22;579;52.046;8.532;2023-04-29T12:30:34;19.40;1.00
1181;DHT22;579;52.046;8.532;2023-04-29T12:33:01;19.40;1.00
1181;DHT22;579;52.046;8.532;2023-04-29T12:35:27;19.40;1.00
1181;DHT22;579;52.046;8.532;2023-04-29T12:37:53;19.00;1.00
1181;DHT22;579;52.046;8.532;2023-04-29T12:40:27;18.60;1.00
1181;DHT22;579;52.046;8.532;2023-04-29T12:42:53;18.60;1.00
1181;DHT22;579;52.046;8.532;2023-04-29T12:48:16;19.00;1.00
1181;DHT22;579;52.046;8.532;2023-04-29T12:50:43;19.20;1.00
1181;DHT22;579;52.046;8.532;2023-04-29T12:53:14;18.90;1.00
1181;DHT22;579;52.046;8.532;2023-04-29T12:55:40;18.80;1.00
1181;DHT22;579;52.046;8.532;2023-04-29T12:58:06;18.90;1.00
1181;DHT22;579;52.046;8.532;2023-04-29T13:00:33;19.00;1.00
1181;DHT22;579;52.046;8.532;2023-04-29T13:03:01;19.10;1.00
1181;DHT22;579;52.046;8.532;2023-04-29T13:09:36;18.80;1.00
1181;DHT22;579;52.046;8.532;2023-04-29T13:12:06;18.20;1.00
1181;DHT22;579;52.046;8.532;2023-04-29T13:14:34;18.20;1.00
1181;DHT22;579;52.046;8.532;2023-04-29T13:17:01;17.90;1.00
1181;DHT22;579;52.046;8.532;2023-04-29T13:19:28;17.80;1.00
1181;DHT22;579;52.046;8.532;2023-04-29T13:21:54;17.70;1.00
1181;DHT22;579;52.046;8.532;2023-04-29T13:24:21;17.50;1.00
1181;DHT22;579;52.046;8.532;2023-04-29T13:30:44;17.90;1.00
1181;DHT22;579;52.046;8.532;2023-04-29T13:33:10;18.40;1.00
1181;DHT22;579;52.046;8.532;2023-04-29T13:35:37;17.70;1.00
1181;DHT22;579;52.046;8.532;2023-04-29T13:38:05;17.70;1.00
1181;DHT22;579;52.046;8.532;2023-04-29T13:40:31;18.70;1.00
1181;DHT22;579;52.046;8.532;2023-04-29T13:42:58;18.40;1.00
1181;DHT22;579;52.046;8.532;2023-04-29T13:45:24;18.40;1.00
1181;DHT22;579;52.046;8.532;2023-04-29T13:52:03;18.10;1.00
1181;DHT22;579;52.046;8.532;2023-04-29T13:54:29;17.90;1.00
1181;DHT22;579;52.046;8.532;2023-04-29T13:56:56;17.90;1.00
1181;DHT22;579;52.046;8.532;2023-04-29T13:59:25;17.70;1.00
1181;DHT22;579;52.046;8.532;2023-04-29T14:01:52;17.80;1.00
1181;DHT22;579;52.046;8.532;2023-04-29T14:04:18;17.80;1.00
1181;DHT22;579;52.046;8.532;2023-04-29T14:06:44;18.10;1.00
1181;DHT22;579;52.046;8.532;2023-04-29T14:12:56;18.50;1.00
1181;DHT22;579;52.046;8.532;2023-04-29T14:15:22;18.80;1.00
1181;DHT22;579;52.046;8.532;2023-04-29T14:17:49;19.10;1.00
1181;DHT22;579;52.046;8.532;2023-04-29T14:20:15;18.90;1.00
1181;DHT22;579;52.046;8.532;2023-04-29T14:22:41;19.10;1.00
1181;DHT22;579;52.046;8.532;2023-04-29T14:25:08;19.20;1.00
1181;DHT22;579;52.046;8.532;2023-04-29T14:27:36;19.20;1.00
1181;DHT22;579;52.046;8.532;2023-04-29T14:35:03;19.40;1.00
1181;DHT22;579;52.046;8.532;2023-04-29T14:37:30;20.00;1.00
1181;DHT22;579;52.046;8.532;2023-04-29T14:39:57;21.00;1.00
1181;DHT22;579;52.046;8.532;2023-04-29T14:42:23;21.40;1.00
1181;DHT22;579;52.046;8.532;2023-04-29T14:44:50;21.20;1.00
1181;DHT22;579;52.046;8.532;2023-04-29T14:47:16;21.10;1.00
1181;DHT22;579;52.046;8.532;2023-04-29T14:49:43;20.80;1.00
1181;DHT22;579;52.046;8.532;2023-04-29T14:57:17;19.60;1.00
1181;DHT22;579;52.046;8.532;2023-04-29T14:59:43;19.30;1.00
1181;DHT22;579;52.046;8.532;2023-04-29T15:02:09;19.20;1.00
1181;DHT22;579;52.046;8.532;2023-04-29T15:04:35;19.20;1.00
1181;DHT22;579;52.046;8.532;2023-04-29T15:07:03;19.30;1.00
1181;DHT22;579;52.046;8.532;2023-04-29T15:09:30;19.40;1.00
1181;DHT22;579;52.046;8.532;2023-04-29T15:11:57;19.30;1.00
1181;DHT22;579;52.046;8.532;2023-04-29T15:18:39;19.10;1.00
1181;DHT22;579;52.046;8.532;2023-04-29T15:21:05;19.20;1.00
1181;DHT22;579;52.046;8.532;2023-04-29T15:23:32;20.20;1.00
1181;DHT22;579;52.046;8.532;2023-04-29T15:25:59;23.00;1.00
1181;DHT22;579;52.046;8.532;2023-04-29T15:28:25;23.30;1.00
1181;DHT22;579;52.046;8.532;2023-04-29T15:30:52;22.70;1.00
1181;DHT22;579;52.046;8.532;2023-04-29T15:33:18;21.80;1.00
1181;DHT22;579;52.046;8.532;2023-04-29T15:39:08;20.70;1.00
1181;DHT22;579;52.046;8.532;2023-04-29T15:41:35;20.00;1.00
1181;DHT22;579;52.046;8.532;2023-04-29T15:44:02;19.60;1.00
1181;DHT22;579;52.046;8.532;2023-04-29T15:46:29;19.50;1.00
1181;DHT22;579;52.046;8.532;2023-04-29T15:48:55;19.50;1.00
1181;DHT22;579;52.046;8.532;2023-04-29T15:51:21;19.20;1.00
1181;DHT22;579;52.046;8.532;2023-04-29T15:53:48;19.30;1.00
1181;DHT22;579;52.046;8.532;2023-04-29T16:00:37;19.10;1.00
1181;DHT22;579;52.046;8.532;2023-04-29T16:03:05;18.50;1.00
1181;DHT22;579;52.046;8.532;2023-04-29T16:05:31;19.20;1.00
1181;DHT22;579;52.046;8.532;2023-04-29T16:07:58;19.00;1.00
1181;DHT22;579;52.046;8.532;2023-04-29T16:10:26;18.70;1.00
1181;DHT22;579;52.046;8.532;2023-04-29T16:12:53;18.50;1.00
1181;DHT22;579;52.046;8.532;2023-04-29T16:15:22;18.60;1.00
1181;DHT22;579;52.046;8.532;2023-04-29T16:20:28;18.60;1.00
1181;DHT22;579;52.046;8.532;2023-04-29T16:22:54;18.60;1.00
1181;DHT22;579;52.046;8.532;2023-04-29T16:25:20;18.70;1.00
1181;DHT22;579;52.046;8.532;2023-04-29T16:27:47;18.50;1.00
1181;DHT22;579;52.046;8.532;2023-04-29T16:30:14;18.60;1.00
1181;DHT22;579;52.046;8.532;2023-04-29T16:32:40;18.40;1.00
1181;DHT22;579;52.046;8.532;2023-04-29T16:35:08;18.30;1.00
1181;DHT22;579;52.046;8.532;2023-04-29T16:42:43;18.20;1.00
1181;DHT22;579;52.046;8.532;2023-04-29T16:45:11;18.10;1.00
1181;DHT22;579;52.046;8.532;2023-04-29T16:47:39;18.20;1.00
1181;DHT22;579;52.046;8.532;2023-04-29T16:50:07;18.10;1.00
1181;DHT22;579;52.046;8.532;2023-04-29T16:52:34;18.00;1.00
1181;DHT22;579;52.046;8.532;2023-04-29T16:55:00;18.00;1.00
1181;DHT22;579;52.046;8.532;2023-04-29T16:57:28;17.90;1.00
1181;DHT22;579;52.046;8.532;2023-04-29T17:00:10;18.00;1.00
1181;DHT22;579;52.046;8.532;2023-04-29T17:02:37;17.90;1.00
1181;DHT22;579;52.046;8.532;2023-04-29T17:05:08;17.80;1.00
1181;DHT22;579;52.046;8.532;2023-04-29T17:07:35;17.90;1.00
1181;DHT22;579;52.046;8.532;2023-04-29T17:10:02;17.70;1.00
1181;DHT22;579;52.046;8.532;2023-04-29T17:12:28;17.80;1.00
1181;DHT22;579;52.046;8.532;2023-04-29T17:14:58;17.90;1.00
1181;DHT22;579;52.046;8.532;2023-04-29T17:22:39;18.00;1.00
1181;DHT22;579;52.046;8.532;2023-04-29T17:25:06;18.70;1.00
1181;DHT22;579;52.046;8.532;2023-04-29T17:27:33;17.70;1.00
1181;DHT22;579;52.046;8.532;2023-04-29T17:30:00;18.00;1.00
1181;DHT22;579;52.046;8.532;2023-04-29T17:32:26;18.10;1.00
1181;DHT22;579;52.046;8.532;2023-04-29T17:34:54;18.10;1.00
1181;DHT22;579;52.046;8.532;2023-04-29T17:37:20;17.80;1.00
1181;DHT22;579;52.046;8.532;2023-04-29T17:43:36;17.80;1.00
1181;DHT22;579;52.046;8.532;2023-04-29T17:46:02;17.60;1.00
1181;DHT22;579;52.046;8.532;2023-04-29T17:48:28;17.80;1.00
1181;DHT22;579;52.046;8.532;2023-04-29T17:50:56;17.50;1.00
1181;DHT22;579;52.046;8.532;2023-04-29T17:53:23;17.80;1.00
1181;DHT22;579;52.046;8.532;2023-04-29T17:55:50;16.80;1.00
1181;DHT22;579;52.046;8.532;2023-04-29T17:58:16;17.40;1.00
1181;DHT22;579;52.046;8.532;2023-04-29T18:05:44;16.90;1.00
1181;DHT22;579;52.046;8.532;2023-04-29T18:08:11;17.00;1.00
1181;DHT22;579;52.046;8.532;2023-04-29T18:10:37;16.90;1.00
1181;DHT22;579;52.046;8.532;2023-04-29T18:13:03;17.10;1.00
1181;DHT22;579;52.046;8.532;2023-04-29T18:15:30;17.20;1.00
1181;DHT22;579;52.046;8.532;2023-04-29T18:17:56;16.80;1.00
1181;DHT22;579;52.046;8.532;2023-04-29T18:20:23;17.10;1.00
1181;DHT22;579;52.046;8.532;2023-04-29T18:26:39;16.30;1.00
1181;DHT22;579;52.046;8.532;2023-04-29T18:29:05;16.30;1.00
1181;DHT22;579;52.046;8.532;2023-04-29T18:31:31;16.40;1.00
1181;DHT22;579;52.046;8.532;2023-04-29T18:33:58;16.40;1.00
1181;DHT22;579;52.046;8.532;2023-04-29T18:36:24;16.30;1.00
1181;DHT22;579;52.046;8.532;2023-04-29T18:38:51;16.50;1.00
1181;DHT22;579;52.046;8.532;2023-04-29T18:41:17;16.50;1.00
1181;DHT22;579;52.046;8.532;2023-04-29T18:48:07;16.00;1.00
1181;DHT22;579;52.046;8.532;2023-04-29T18:50:34;16.00;1.00
1181;DHT22;579;52.046;8.532;2023-04-29T18:53:00;16.00;1.00
1181;DHT22;579;52.046;8.532;2023-04-29T18:55:27;16.20;1.00
1181;DHT22;579;52.046;8.532;2023-04-29T18:57:53;16.10;1.00
1181;DHT22;579;52.046;8.532;2023-04-29T19:00:20;16.00;1.00
1181;DHT22;579;52.046;8.532;2023-04-29T19:02:47;15.80;1.00
1181;DHT22;579;52.046;8.532;2023-04-29T19:09:37;15.70;1.00
1181;DHT22;579;52.046;8.532;2023-04-29T19:12:04;15.50;1.00
1181;DHT22;579;52.046;8.532;2023-04-29T19:14:31;15.40;1.00
1181;DHT22;579;52.046;8.532;2023-04-29T19:16:58;15.40;1.00
1181;DHT22;579;52.046;8.532;2023-04-29T19:19:25;15.20;1.00
1181;DHT22;579;52.046;8.532;2023-04-29T19:21:51;15.00;1.00
1181;DHT22;579;52.046;8.532;2023-04-29T19:24:17;15.00;1.00
1181;DHT22;579;52.046;8.532;2023-04-29T19:30:37;14.80;1.00
1181;DHT22;579;52.046;8.532;2023-04-29T19:33:03;14.90;1.00
1181;DHT22;579;52.046;8.532;2023-04-29T19:35:29;14.50;1.00
1181;DHT22;579;52.046;8.532;2023-04-29T19:37:55;14.70;1.00
1181;DHT22;579;52.046;8.532;2023-04-29T19:40:22;14.40;1.00
1181;DHT22;579;52.046;8.532;2023-04-29T19:42:48;14.20;1.00
1181;DHT22;579;52.046;8.532;2023-04-29T19:45:14;13.90;1.00
1181;DHT22;579;52.046;8.532;2023-04-29T19:52:44;13.60;1.00
1181;DHT22;579;52.046;8.532;2023-04-29T19:55:10;13.50;1.00
1181;DHT22;579;52.046;8.532;2023-04-29T19:57:36;13.40;1.00
1181;DHT22;579;52.046;8.532;2023-04-29T20:00:04;13.30;1.00
1181;DHT22;579;52.046;8.532;2023-04-29T20:02:31;13.30;1.00
1181;DHT22;579;52.046;8.532;2023-04-29T20:04:57;13.00;1.00
1181;DHT22;579;52.046;8.532;2023-04-29T20:07:23;13.00;1.00
1181;DHT22;579;52.046;8.532;2023-04-29T20:16:30;12.70;1.00
1181;DHT22;579;52.046;8.532;2023-04-29T20:18:56;12.60;1.00
1181;DHT22;579;52.046;8.532;2023-04-29T20:21:23;12.70;1.00
1181;DHT22;579;52.046;8.532;2023-04-29T20:23:49;12.60;1.00
1181;DHT22;579;52.046;8.532;2023-04-29T20:26:16;13.50;1.00
1181;DHT22;579;52.046;8.532;2023-04-29T20:28:42;12.50;1.00
1181;DHT22;579;52.046;8.532;2023-04-29T20:31:09;12.50;1.00
1181;DHT22;579;52.046;8.532;2023-04-29T20:38:41;12.70;1.00
1181;DHT22;579;52.046;8.532;2023-04-29T20:41:08;12.70;1.00
1181;DHT22;579;52.046;8.532;2023-04-29T20:43:34;12.70;1.00
1181;DHT22;579;52.046;8.532;2023-04-29T20:46:00;13.00;1.00
1181;DHT22;579;52.046;8.532;2023-04-29T20:48:27;13.00;1.00
1181;DHT22;579;52.046;8.532;2023-04-29T20:50:53;12.90;1.00
1181;DHT22;579;52.046;8.532;2023-04-29T20:53:19;12.70;1.00